createdAt,value
2022-10-09T00:00:15.569Z,14.14
2022-10-09T00:02:43.263Z,14.07
2022-10-09T00:05:11.062Z,14.14
2022-10-09T00:07:38.749Z,14.09
2022-10-09T00:10:07.007Z,13.98
2022-10-09T00:12:34.684Z,14.07
2022-10-09T00:15:10.578Z,14.08
2022-10-09T00:17:40.293Z,14.03
2022-10-09T00:20:08.830Z,13.96
2022-10-09T00:22:36.543Z,13.96
2022-10-09T00:25:04.780Z,14.10
2022-10-09T00:27:32.435Z,14.03
2022-10-09T00:30:01.672Z,13.93
2022-10-09T00:32:31.913Z,14.02
2022-10-09T00:35:00.936Z,14.03
2022-10-09T00:37:29.721Z,14.06
2022-10-09T00:39:57.376Z,13.99
2022-10-09T00:42:26.249Z,13.76
2022-10-09T00:44:57.639Z,13.93
2022-10-09T00:47:29.687Z,13.97
2022-10-09T00:50:02.986Z,13.95
2022-10-09T00:52:31.172Z,13.86
2022-10-09T00:54:59.510Z,13.98
2022-10-09T00:57:27.209Z,13.98
2022-10-09T00:59:54.928Z,13.92
2022-10-09T01:02:22.749Z,13.91
2022-10-09T01:04:50.497Z,13.79
2022-10-09T01:07:36.693Z,13.87
2022-10-09T01:10:16.932Z,13.87
2022-10-09T01:12:48.504Z,13.91
2022-10-09T01:15:19.315Z,13.89
2022-10-09T01:17:52.737Z,13.82
2022-10-09T01:20:30.531Z,13.68
2022-10-09T01:23:19.537Z,13.77
2022-10-09T01:25:58.044Z,13.73
2022-10-09T01:28:29.402Z,13.83
2022-10-09T01:30:59.294Z,13.86
2022-10-09T01:33:27.476Z,13.89
2022-10-09T01:35:55.208Z,13.82
2022-10-09T01:38:24.616Z,13.77
2022-10-09T01:40:53.895Z,13.75
2022-10-09T01:43:21.621Z,13.74
2022-10-09T01:45:50.688Z,13.70
2022-10-09T01:48:23.417Z,13.64
2022-10-09T01:50:54.575Z,13.66
2022-10-09T01:53:24.198Z,13.55
2022-10-09T01:55:57.153Z,13.55
2022-10-09T01:58:29.620Z,13.64
2022-10-09T02:01:02.505Z,13.56
2022-10-09T02:03:31.443Z,13.57
2022-10-09T02:06:03.003Z,13.52
2022-10-09T02:08:31.721Z,13.60
2022-10-09T02:11:02.550Z,13.56
2022-10-09T02:13:30.747Z,13.52
2022-10-09T02:16:05.688Z,13.53
2022-10-09T02:18:39.277Z,13.50
2022-10-09T02:21:12.303Z,13.38
2022-10-09T02:23:41.180Z,13.34
2022-10-09T02:26:09.486Z,13.36
2022-10-09T02:28:37.367Z,13.27
2022-10-09T02:31:10.174Z,13.22
2022-10-09T02:33:38.015Z,13.25
2022-10-09T02:36:05.864Z,13.22
2022-10-09T02:38:33.517Z,13.24
2022-10-09T02:41:03.880Z,13.19
2022-10-09T02:43:31.527Z,13.15
2022-10-09T02:45:59.219Z,13.16
2022-10-09T02:48:28.265Z,13.13
2022-10-09T02:50:55.948Z,13.13
2022-10-09T02:53:23.751Z,13.14
2022-10-09T02:55:51.418Z,13.08
2022-10-09T02:58:19.370Z,13.07
2022-10-09T03:00:49.354Z,13.07
2022-10-09T03:03:17.194Z,13.11
2022-10-09T03:05:46.253Z,13.06
2022-10-09T03:08:14.065Z,13.18
2022-10-09T03:10:42.053Z,13.10
2022-10-09T03:13:10.296Z,13.13
2022-10-09T03:15:38.519Z,13.00
2022-10-09T03:18:06.326Z,12.97
2022-10-09T03:20:34.018Z,12.95
2022-10-09T03:23:03.180Z,13.00
2022-10-09T03:25:30.901Z,13.02
2022-10-09T03:27:58.610Z,12.89
2022-10-09T03:30:26.569Z,12.87
2022-10-09T03:32:54.229Z,12.83
2022-10-09T03:35:21.879Z,12.81
2022-10-09T03:37:49.536Z,12.79
2022-10-09T03:40:18.582Z,12.80
2022-10-09T03:42:46.522Z,12.79
2022-10-09T03:45:14.425Z,12.76
2022-10-09T03:47:42.089Z,12.78
2022-10-09T03:50:12.804Z,12.83
2022-10-09T03:52:42.568Z,12.76
2022-10-09T03:55:10.352Z,12.80
2022-10-09T03:57:39.477Z,12.85
2022-10-09T04:00:08.554Z,12.81
2022-10-09T04:02:36.650Z,12.70
2022-10-09T04:05:04.665Z,12.69
2022-10-09T04:07:33.911Z,12.71
2022-10-09T04:10:01.612Z,12.77
2022-10-09T04:12:29.765Z,12.77
2022-10-09T04:14:58.822Z,12.72
2022-10-09T04:17:26.521Z,12.77
2022-10-09T04:19:54.197Z,12.66
2022-10-09T04:22:21.884Z,12.59
2022-10-09T04:24:49.580Z,12.61
2022-10-09T04:27:17.546Z,12.56
2022-10-09T04:29:45.352Z,12.53
2022-10-09T04:32:14.363Z,12.48
2022-10-09T04:34:42.025Z,12.56
2022-10-09T04:37:09.680Z,12.60
2022-10-09T04:39:37.328Z,12.53
2022-10-09T04:42:06.170Z,12.52
2022-10-09T04:44:33.851Z,12.54
2022-10-09T04:47:02.997Z,12.48
2022-10-09T04:49:32.014Z,12.49
2022-10-09T04:51:59.671Z,12.40
2022-10-09T04:54:27.653Z,12.32
2022-10-09T04:56:55.325Z,12.39
2022-10-09T04:59:22.957Z,12.38
2022-10-09T05:01:50.668Z,12.42
2022-10-09T05:04:18.366Z,12.31
2022-10-09T05:06:47.341Z,12.30
2022-10-09T05:09:15.040Z,12.32
2022-10-09T05:11:43.084Z,12.30
2022-10-09T05:14:11.181Z,12.29
2022-10-09T05:17:08.543Z,12.29
2022-10-09T05:19:26.635Z,12.30
2022-10-09T05:21:56.596Z,12.28
2022-10-09T05:24:24.390Z,12.25
2022-10-09T05:26:52.459Z,12.22
2022-10-09T05:29:20.188Z,12.19
2022-10-09T05:31:49.662Z,12.14
2022-10-09T05:34:17.669Z,12.14
2022-10-09T05:36:45.324Z,12.13
2022-10-09T05:39:14.517Z,12.04
2022-10-09T05:41:42.197Z,12.10
2022-10-09T05:44:09.880Z,12.06
2022-10-09T05:46:37.572Z,12.04
2022-10-09T05:49:06.598Z,12.04
2022-10-09T05:51:36.080Z,12.07
2022-10-09T05:54:04.364Z,12.03
2022-10-09T05:56:34.825Z,12.11
2022-10-09T05:59:04.557Z,12.12
2022-10-09T06:01:34.303Z,12.02
2022-10-09T06:04:04.109Z,12.04
2022-10-09T06:06:33.846Z,11.94
2022-10-09T06:09:01.715Z,12.01
2022-10-09T06:11:33.126Z,12.07
2022-10-09T06:14:02.046Z,12.15
2022-10-09T06:16:32.126Z,12.21
2022-10-09T06:19:00.503Z,12.24
2022-10-09T06:21:30.093Z,12.24
2022-10-09T06:23:59.701Z,12.17
2022-10-09T06:26:29.284Z,12.18
2022-10-09T06:28:59.105Z,12.14
2022-10-09T06:31:28.650Z,12.26
2022-10-09T06:33:56.886Z,12.20
2022-10-09T06:36:26.054Z,12.09
2022-10-09T06:38:54.501Z,12.09
2022-10-09T06:41:24.194Z,12.14
2022-10-09T06:43:54.103Z,12.06
2022-10-09T06:46:24.480Z,12.04
2022-10-09T06:48:52.289Z,11.91
2022-10-09T06:51:23.420Z,12.11
2022-10-09T06:53:52.608Z,12.14
2022-10-09T06:56:21.532Z,12.21
2022-10-09T06:58:49.694Z,12.22
2022-10-09T07:01:19.509Z,12.22
2022-10-09T07:03:53.109Z,12.28
2022-10-09T07:06:22.162Z,12.31
2022-10-09T07:08:51.920Z,12.35
2022-10-09T07:11:21.361Z,12.26
2022-10-09T07:13:50.091Z,12.29
2022-10-09T07:16:20.738Z,12.31
2022-10-09T07:18:50.327Z,12.42
2022-10-09T07:21:18.148Z,12.33
2022-10-09T07:23:45.864Z,12.31
2022-10-09T07:26:15.948Z,12.30
2022-10-09T07:28:44.601Z,12.35
2022-10-09T07:31:13.167Z,12.05
2022-10-09T07:33:41.541Z,12.08
2022-10-09T07:36:11.490Z,12.02
2022-10-09T07:38:39.141Z,12.24
2022-10-09T07:41:08.282Z,12.08
2022-10-09T07:43:36.857Z,12.31
2022-10-09T07:46:05.930Z,12.31
2022-10-09T07:48:34.885Z,12.41
2022-10-09T07:51:10.473Z,12.38
2022-10-09T07:53:38.565Z,12.49
2022-10-09T07:56:07.180Z,12.60
2022-10-09T07:58:34.977Z,12.73
2022-10-09T08:01:05.523Z,12.90
2022-10-09T08:03:33.265Z,12.93
2022-10-09T08:06:00.963Z,12.91
2022-10-09T08:08:32.042Z,13.04
2022-10-09T08:10:59.796Z,13.03
2022-10-09T08:13:27.776Z,13.11
2022-10-09T08:15:58.687Z,13.23
2022-10-09T08:18:26.369Z,13.32
2022-10-09T08:20:59.542Z,13.37
2022-10-09T08:23:27.316Z,13.40
2022-10-09T08:25:56.509Z,13.51
2022-10-09T08:28:24.411Z,13.57
2022-10-09T08:30:52.409Z,13.53
2022-10-09T08:33:21.997Z,13.70
2022-10-09T08:35:49.915Z,13.70
2022-10-09T08:38:44.957Z,13.75
2022-10-09T08:41:09.793Z,13.81
2022-10-09T08:43:41.301Z,13.92
2022-10-09T08:46:20.714Z,14.05
2022-10-09T08:48:49.578Z,14.11
2022-10-09T08:51:22.471Z,14.26
2022-10-09T08:53:54.701Z,14.02
2022-10-09T08:56:24.160Z,14.18
2022-10-09T08:58:51.843Z,14.26
2022-10-09T09:01:25.498Z,14.35
2022-10-09T09:04:00.583Z,14.39
2022-10-09T09:06:36.390Z,14.26
2022-10-09T09:09:10.994Z,14.49
2022-10-09T09:11:44.364Z,14.54
2022-10-09T09:14:21.481Z,14.53
2022-10-09T09:16:54.964Z,14.61
2022-10-09T09:19:41.941Z,14.54
2022-10-09T09:22:11.537Z,14.64
2022-10-09T09:24:41.826Z,14.73
2022-10-09T09:27:15.070Z,14.81
2022-10-09T09:29:46.157Z,14.78
2022-10-09T09:32:19.010Z,14.93
2022-10-09T09:34:46.984Z,14.81
2022-10-09T09:37:15.097Z,14.95
2022-10-09T09:40:31.235Z,15.03
2022-10-09T09:42:32.940Z,15.03
2022-10-09T09:45:03.995Z,15.23
2022-10-09T09:47:34.840Z,15.23
2022-10-09T09:50:04.260Z,15.25
2022-10-09T09:52:36.393Z,15.22
2022-10-09T09:55:05.431Z,15.19
2022-10-09T09:57:36.952Z,15.20
2022-10-09T10:00:21.930Z,15.52
2022-10-09T10:02:49.993Z,15.35
2022-10-09T10:05:27.235Z,15.55
2022-10-09T10:07:57.439Z,15.56
2022-10-09T10:10:27.091Z,15.61
2022-10-09T10:12:58.143Z,15.60
2022-10-09T10:15:27.574Z,15.76
2022-10-09T10:18:03.756Z,15.67
2022-10-09T10:20:32.820Z,15.72
2022-10-09T10:23:02.945Z,15.71
2022-10-09T10:25:32.716Z,15.88
2022-10-09T10:28:04.989Z,15.79
2022-10-09T10:30:33.061Z,15.72
2022-10-09T10:33:04.592Z,15.83
2022-10-09T10:35:34.858Z,15.68
2022-10-09T10:38:06.540Z,15.63
2022-10-09T10:40:37.500Z,15.71
2022-10-09T10:43:16.730Z,15.88
2022-10-09T10:45:59.244Z,15.77
2022-10-09T10:48:28.950Z,15.94
2022-10-09T10:51:04.561Z,16.00
2022-10-09T10:53:42.579Z,16.03
2022-10-09T10:56:15.968Z,15.92
2022-10-09T10:58:50.666Z,15.98
2022-10-09T11:01:29.516Z,15.87
2022-10-09T11:04:12.773Z,15.98
2022-10-09T11:06:47.030Z,16.18
2022-10-09T11:09:19.368Z,16.15
2022-10-09T11:11:50.058Z,16.27
2022-10-09T11:14:29.835Z,16.25
2022-10-09T11:17:02.189Z,16.26
2022-10-09T11:19:54.177Z,16.35
2022-10-09T11:22:31.945Z,16.09
2022-10-09T11:25:09.389Z,16.24
2022-10-09T11:27:41.168Z,16.17
2022-10-09T11:30:12.916Z,16.26
2022-10-09T11:32:47.673Z,16.32
2022-10-09T11:35:19.998Z,16.05
2022-10-09T11:37:55.028Z,15.99
2022-10-09T11:40:25.090Z,15.87
2022-10-09T11:42:57.666Z,16.00
2022-10-09T11:45:31.081Z,16.08
2022-10-09T11:48:03.974Z,16.02
2022-10-09T11:50:40.583Z,15.99
2022-10-09T11:53:11.499Z,16.07
2022-10-09T11:55:39.354Z,15.99
2022-10-09T11:58:14.889Z,15.99
2022-10-09T12:00:43.998Z,15.84
2022-10-09T12:03:25.005Z,15.79
2022-10-09T12:05:52.760Z,15.86
2022-10-09T12:08:27.624Z,15.81
2022-10-09T12:10:56.629Z,15.90
2022-10-09T12:13:42.914Z,15.85
2022-10-09T12:16:30.797Z,15.97
2022-10-09T12:19:00.251Z,16.01
2022-10-09T12:21:33.716Z,15.94
2022-10-09T12:24:03.010Z,15.92
2022-10-09T12:26:31.106Z,15.84
2022-10-09T12:29:01.840Z,15.98
2022-10-09T12:31:33.939Z,15.94
2022-10-09T12:34:04.416Z,15.91
2022-10-09T12:36:33.507Z,16.03
2022-10-09T12:39:13.629Z,15.86
2022-10-09T12:41:43.917Z,16.01
2022-10-09T12:44:26.102Z,16.11
2022-10-09T12:46:55.149Z,16.12
2022-10-09T12:49:25.447Z,16.16
2022-10-09T12:51:56.269Z,16.00
2022-10-09T12:54:25.849Z,15.96
2022-10-09T12:56:54.432Z,15.99
2022-10-09T12:59:22.833Z,16.02
2022-10-09T13:01:51.337Z,16.05
2022-10-09T13:04:26.905Z,16.13
2022-10-09T13:06:55.209Z,16.12
2022-10-09T13:09:24.889Z,16.06
2022-10-09T13:11:55.520Z,16.20
2022-10-09T13:14:27.237Z,16.13
2022-10-09T13:16:55.146Z,16.17
2022-10-09T13:19:27.110Z,16.10
2022-10-09T13:22:18.208Z,16.17
2022-10-09T13:24:45.916Z,16.20
2022-10-09T13:27:14.902Z,16.02
2022-10-09T13:29:43.441Z,16.17
2022-10-09T13:32:13.671Z,16.14
2022-10-09T13:34:42.833Z,16.11
2022-10-09T13:37:12.548Z,16.23
2022-10-09T13:39:40.245Z,16.28
2022-10-09T13:42:08.142Z,16.29
2022-10-09T13:44:35.807Z,16.24
2022-10-09T13:47:04.083Z,16.23
2022-10-09T13:49:31.751Z,16.30
2022-10-09T13:52:00.813Z,16.26
2022-10-09T13:54:28.667Z,16.38
2022-10-09T13:56:56.367Z,16.37
2022-10-09T13:59:25.000Z,16.35
2022-10-09T14:01:52.816Z,16.41
2022-10-09T14:04:20.557Z,16.27
2022-10-09T14:06:48.355Z,16.36
2022-10-09T14:09:17.393Z,16.30
2022-10-09T14:11:45.066Z,16.22
2022-10-09T14:14:12.884Z,16.34
2022-10-09T14:16:40.621Z,16.29
2022-10-09T14:19:08.350Z,16.25
2022-10-09T14:21:36.046Z,16.27
2022-10-09T14:24:04.612Z,16.32
2022-10-09T14:26:34.046Z,16.29
2022-10-09T14:29:03.114Z,16.24
2022-10-09T14:31:30.895Z,16.29
2022-10-09T14:33:59.871Z,16.18
2022-10-09T14:36:27.673Z,16.23
2022-10-09T14:38:56.010Z,16.25
2022-10-09T14:41:23.827Z,16.15
2022-10-09T14:43:56.680Z,16.30
2022-10-09T14:46:25.123Z,16.34
2022-10-09T14:48:55.108Z,16.33
2022-10-09T14:51:24.448Z,16.28
2022-10-09T14:53:52.200Z,16.13
2022-10-09T14:56:21.350Z,16.15
2022-10-09T14:58:49.068Z,16.22
2022-10-09T15:01:19.564Z,16.22
2022-10-09T15:03:48.087Z,16.22
2022-10-09T15:06:17.143Z,16.19
2022-10-09T15:08:45.173Z,16.19
2022-10-09T15:11:13.633Z,16.18
2022-10-09T15:13:41.334Z,16.16
2022-10-09T15:16:11.648Z,16.15
2022-10-09T15:18:41.157Z,16.07
2022-10-09T15:21:13.189Z,16.07
2022-10-09T15:23:41.074Z,16.05
2022-10-09T15:26:09.238Z,16.13
2022-10-09T15:28:37.588Z,16.16
2022-10-09T15:31:07.269Z,16.13
2022-10-09T15:33:34.871Z,16.10
2022-10-09T15:36:04.834Z,16.09
2022-10-09T15:38:32.561Z,16.10
2022-10-09T15:41:00.203Z,16.05
2022-10-09T15:43:29.027Z,15.92
2022-10-09T15:46:03.403Z,16.02
2022-10-09T15:48:31.124Z,15.95
2022-10-09T15:50:58.780Z,15.93
2022-10-09T15:53:27.801Z,16.04
2022-10-09T15:55:55.744Z,15.92
2022-10-09T15:58:23.564Z,15.86
2022-10-09T16:00:51.234Z,15.88
2022-10-09T16:03:19.693Z,15.87
2022-10-09T16:05:50.859Z,15.91
2022-10-09T16:08:19.790Z,15.84
2022-10-09T16:10:51.787Z,15.82
2022-10-09T16:13:19.891Z,15.82
2022-10-09T16:15:48.458Z,15.70
2022-10-09T16:18:17.261Z,15.72
2022-10-09T16:20:45.098Z,15.79
2022-10-09T16:23:13.441Z,15.83
2022-10-09T16:25:41.761Z,15.82
2022-10-09T16:28:12.883Z,15.78
2022-10-09T16:30:43.121Z,15.84
2022-10-09T16:33:12.917Z,15.81
2022-10-09T16:35:40.905Z,15.81
2022-10-09T16:38:09.080Z,15.71
2022-10-09T16:41:00.951Z,15.82
2022-10-09T16:43:25.751Z,15.82
2022-10-09T16:45:53.440Z,15.78
2022-10-09T16:48:21.098Z,15.72
2022-10-09T16:50:49.269Z,15.69
2022-10-09T16:53:17.022Z,15.58
2022-10-09T16:55:44.724Z,15.63
2022-10-09T16:58:12.385Z,15.66
2022-10-09T17:00:42.634Z,15.47
2022-10-09T17:03:10.517Z,15.65
2022-10-09T17:05:39.172Z,15.49
2022-10-09T17:08:06.927Z,15.55
2022-10-09T17:10:36.563Z,15.60
2022-10-09T17:13:06.548Z,15.56
2022-10-09T17:15:34.208Z,15.59
2022-10-09T17:18:03.201Z,15.64
2022-10-09T17:20:30.850Z,15.54
2022-10-09T17:23:00.162Z,15.60
2022-10-09T17:25:32.098Z,15.57
2022-10-09T17:28:01.440Z,15.64
2022-10-09T17:30:32.095Z,15.64
2022-10-09T17:32:59.769Z,15.68
2022-10-09T17:35:28.813Z,15.70
2022-10-09T17:37:57.372Z,15.70
2022-10-09T17:40:25.285Z,15.72
2022-10-09T17:42:53.020Z,15.67
2022-10-09T17:45:20.789Z,15.68
2022-10-09T17:47:49.018Z,15.58
2022-10-09T17:50:16.891Z,15.66
2022-10-09T17:52:45.877Z,15.65
2022-10-09T17:55:13.576Z,15.58
2022-10-09T17:57:41.523Z,15.60
2022-10-09T18:00:11.035Z,15.51
2022-10-09T18:02:38.685Z,15.47
2022-10-09T18:05:08.315Z,15.45
2022-10-09T18:07:36.165Z,15.42
2022-10-09T18:10:05.766Z,15.42
2022-10-09T18:12:33.456Z,15.45
2022-10-09T18:15:02.944Z,15.40
2022-10-09T18:17:33.113Z,15.35
2022-10-09T18:20:00.922Z,15.35
2022-10-09T18:22:28.565Z,15.29
2022-10-09T18:24:56.205Z,15.32
2022-10-09T18:27:25.691Z,15.25
2022-10-09T18:29:53.443Z,15.29
2022-10-09T18:32:21.136Z,15.25
2022-10-09T18:34:49.042Z,15.14
2022-10-09T18:37:19.539Z,15.02
2022-10-09T18:39:48.471Z,14.92
2022-10-09T18:42:16.170Z,14.92
2022-10-09T18:44:45.201Z,14.94
2022-10-09T18:47:16.775Z,14.84
2022-10-09T18:49:46.766Z,14.64
2022-10-09T18:52:15.239Z,14.57
2022-10-09T18:54:44.597Z,14.53
2022-10-09T18:57:12.973Z,14.42
2022-10-09T18:59:40.984Z,14.46
2022-10-09T19:02:10.004Z,14.40
2022-10-09T19:04:37.658Z,14.38
2022-10-09T19:07:05.339Z,14.40
2022-10-09T19:09:33.030Z,14.39
2022-10-09T19:12:00.755Z,14.48
2022-10-09T19:14:28.585Z,14.50
2022-10-09T19:16:56.536Z,14.53
2022-10-09T19:19:25.535Z,14.48
2022-10-09T19:21:54.269Z,14.44
2022-10-09T19:24:21.905Z,14.62
2022-10-09T19:26:49.598Z,14.31
2022-10-09T19:29:17.252Z,14.43
2022-10-09T19:31:44.925Z,14.35
2022-10-09T19:34:12.651Z,14.24
2022-10-09T19:36:43.028Z,14.22
2022-10-09T19:39:11.081Z,14.33
2022-10-09T19:41:41.663Z,14.12
2022-10-09T19:44:09.812Z,14.15
2022-10-09T19:46:38.434Z,14.18
2022-10-09T19:49:06.917Z,14.23
2022-10-09T19:51:36.148Z,14.31
2022-10-09T19:54:08.470Z,14.48
2022-10-09T19:56:36.920Z,14.48
2022-10-09T19:59:10.994Z,14.56
2022-10-09T20:01:40.161Z,14.52
2022-10-09T20:04:10.673Z,14.45
2022-10-09T20:06:39.585Z,14.47
2022-10-09T20:09:09.779Z,14.45
2022-10-09T20:11:37.822Z,14.47
2022-10-09T20:14:05.767Z,14.48
2022-10-09T20:16:34.881Z,14.55
2022-10-09T20:19:30.712Z,14.53
2022-10-09T20:21:58.653Z,14.46
2022-10-09T20:24:27.647Z,14.48
2022-10-09T20:26:55.311Z,14.47
2022-10-09T20:29:22.984Z,14.20
2022-10-09T20:31:50.688Z,14.33
2022-10-09T20:34:18.354Z,14.36
2022-10-09T20:36:46.008Z,14.21
2022-10-09T20:39:15.274Z,14.08
2022-10-09T20:41:44.501Z,14.06
2022-10-09T20:44:13.040Z,13.86
2022-10-09T20:46:41.770Z,13.96
2022-10-09T20:49:12.583Z,13.95
2022-10-09T20:51:40.608Z,14.04
2022-10-09T20:54:09.850Z,13.96
2022-10-09T20:56:37.648Z,14.05
2022-10-09T20:59:06.623Z,13.99
2022-10-09T21:01:34.505Z,14.01
2022-10-09T21:04:04.644Z,14.11
2022-10-09T21:06:33.872Z,14.14
2022-10-09T21:09:01.540Z,14.08
2022-10-09T21:11:34.589Z,14.04
2022-10-09T21:14:05.030Z,14.00
2022-10-09T21:16:34.075Z,13.86
2022-10-09T21:19:05.013Z,13.77
2022-10-09T21:21:33.281Z,13.68
2022-10-09T21:24:01.504Z,13.68
2022-10-09T21:26:35.495Z,13.69
2022-10-09T21:29:04.180Z,13.67
2022-10-09T21:31:34.032Z,13.49
2022-10-09T21:34:05.038Z,13.51
2022-10-09T21:36:55.803Z,13.67
2022-10-09T21:39:27.450Z,13.53
2022-10-09T21:41:55.369Z,13.40
2022-10-09T21:44:23.039Z,13.53
2022-10-09T21:46:52.044Z,13.35
2022-10-09T21:49:22.090Z,13.27
2022-10-09T21:51:50.097Z,13.36
2022-10-09T21:54:17.919Z,13.19
2022-10-09T21:56:45.624Z,13.25
2022-10-09T21:59:13.284Z,13.22
2022-10-09T22:01:41.038Z,13.26
2022-10-09T22:04:10.148Z,13.12
2022-10-09T22:06:37.853Z,13.17
2022-10-09T22:09:05.517Z,13.02
2022-10-09T22:11:33.176Z,13.17
2022-10-09T22:14:00.890Z,13.09
2022-10-09T22:16:28.523Z,13.06
2022-10-09T22:18:56.213Z,13.04
2022-10-09T22:21:25.253Z,13.16
2022-10-09T22:23:52.896Z,13.14
2022-10-09T22:26:22.185Z,12.99
2022-10-09T22:28:50.526Z,12.84
2022-10-09T22:31:19.873Z,12.84
2022-10-09T22:33:50.949Z,12.72
2022-10-09T22:36:19.742Z,12.71
2022-10-09T22:38:48.931Z,12.87
2022-10-09T22:41:18.377Z,12.80
2022-10-09T22:43:48.421Z,12.86
2022-10-09T22:46:18.469Z,12.87
2022-10-09T22:48:46.351Z,12.94
2022-10-09T22:51:15.817Z,12.96
2022-10-09T22:53:43.796Z,13.00
2022-10-09T22:56:15.348Z,12.92
2022-10-09T22:58:42.993Z,13.09
2022-10-09T23:01:12.900Z,13.13
2022-10-09T23:03:40.690Z,13.28
2022-10-09T23:06:09.995Z,13.32
2022-10-09T23:08:38.273Z,13.26
2022-10-09T23:11:06.177Z,13.32
2022-10-09T23:13:35.311Z,13.31
2022-10-09T23:16:03.597Z,13.30
2022-10-09T23:18:31.729Z,13.26
2022-10-09T23:20:59.549Z,13.24
2022-10-09T23:23:28.966Z,13.28
2022-10-09T23:25:56.700Z,13.29
2022-10-09T23:28:26.398Z,13.31
2022-10-09T23:31:01.564Z,13.22
2022-10-09T23:33:29.259Z,13.25
2022-10-09T23:35:57.056Z,13.11
2022-10-09T23:38:24.924Z,13.16
2022-10-09T23:40:56.477Z,13.12
2022-10-09T23:43:24.138Z,13.10
2022-10-09T23:45:51.969Z,13.03
2022-10-09T23:48:20.973Z,13.06
2022-10-09T23:50:48.807Z,13.08
2022-10-09T23:53:17.056Z,12.97
2022-10-09T23:55:44.922Z,12.93
2022-10-09T23:58:17.168Z,12.86
